Time;durP1;ratioP1;P1;durP2;ratioP2;P2;SDS_P1;SDS_P2;PMS_P1;PMS_P2;Temp;Humidity;BMP_temperature;BMP_pressure;BME280_temperature;BME280_humidity;BME280_pressure;Samples;Min_cycle;Max_cycle;Signal;HPM_P1;HPM_P2
2021/06/24 00:04:42;;;;;;;27.50;18.82;;;;;;;21.82;84.58;99227.97;4193115;83;21065;-83
2021/06/24 00:10:53;;;;;;;24.55;19.32;;;;;;;21.84;84.62;99224.13;4203027;83;21064;-83
2021/06/24 00:17:03;;;;;;;30.00;21.60;;;;;;;21.76;84.67;99208.85;4180823;83;21071;-82
2021/06/24 00:23:17;;;;;;;28.62;19.75;;;;;;;21.66;84.79;99180.84;4135258;84;21065;-82
2021/06/24 00:29:23;;;;;;;25.73;19.43;;;;;;;21.60;85.20;99167.31;3986668;87;21042;-82
2021/06/24 00:35:24;;;;;;;29.10;20.35;;;;;;;21.49;85.07;99157.70;3982520;87;21054;-83
2021/06/24 00:41:40;;;;;;;;;;;;;;;;;;;;;
2021/06/24 00:47:30;;;;;;;31.55;21.25;;;;;;;21.27;85.64;99145.64;3990394;88;21082;-82
2021/06/24 00:53:34;;;;;;;26.07;20.82;;;;;;;21.26;85.81;99156.62;3992714;87;21066;-81
2021/06/24 00:59:37;;;;;;;21.02;16.27;;;;;;;21.19;85.75;99167.34;4079853;85;21066;-82
2021/06/24 01:05:42;;;;;;;31.40;22.45;;;;;;;21.06;86.13;99160.98;4133080;85;21078;-82
2021/06/24 01:11:46;;;;;;;29.45;21.95;;;;;;;21.11;86.54;99149.91;4191787;84;21731;-81
2021/06/24 01:17:51;;;;;;;34.58;22.95;;;;;;;21.09;86.59;99142.60;4207714;83;21018;-81
2021/06/24 01:30:45;;;;;;;38.33;23.83;;;;;;;20.92;86.94;99121.60;4183041;83;21017;-80
2021/06/24 01:36:59;;;;;;;34.65;23.52;;;;;;;20.84;87.00;99121.03;4018441;85;21084;-81
2021/06/24 01:43:03;;;;;;;33.02;21.33;;;;;;;20.68;87.36;99103.59;4165378;84;21084;-83
2021/06/24 01:49:05;;;;;;;33.78;23.77;;;;;;;20.69;87.76;99110.73;4206106;83;21021;-81
2021/06/24 01:55:12;;;;;;;31.25;22.02;;;;;;;20.75;87.73;99108.34;4176051;84;21030;-82
2021/06/24 02:01:15;;;;;;;29.55;20.95;;;;;;;20.62;87.64;99113.09;4174021;83;21038;-82
2021/06/24 02:07:20;;;;;;;28.92;21.68;;;;;;;20.48;87.85;99116.27;4178017;83;21059;-81
2021/06/24 02:13:40;;;;;;;31.45;24.75;;;;;;;20.38;88.06;99117.31;4196750;83;21692;-81
2021/06/24 02:19:45;;;;;;;35.40;23.45;;;;;;;20.39;88.65;99120.89;4130655;84;21124;-81
2021/06/24 02:25:48;;;;;;;32.38;23.10;;;;;;;20.34;88.65;99118.03;4130500;84;21078;-81
2021/06/24 02:31:54;;;;;;;32.88;24.47;;;;;;;20.19;88.86;99107.88;4132573;84;21075;-81
2021/06/24 02:38:10;;;;;;;;;;;;;;;;;;;;;
2021/06/24 02:44:11;;;;;;;37.73;25.43;;;;;;;20.06;89.66;99096.50;4128205;84;21064;-79
2021/06/24 02:50:23;;;;;;;36.00;24.32;;;;;;;20.07;89.84;99091.89;4125553;84;21036;-81
2021/06/24 02:56:23;;;;;;;35.40;24.27;;;;;;;19.99;89.50;99075.23;4124472;85;21089;-81
2021/06/24 03:02:27;;;;;;;36.50;26.20;;;;;;;19.92;89.94;99069.08;4205428;83;21572;-81
2021/06/24 03:08:29;;;;;;;34.85;24.18;;;;;;;19.96;90.25;99066.97;4106204;85;21070;-82
2021/06/24 03:14:41;;;;;;;37.63;25.43;;;;;;;19.97;90.47;99069.91;4202253;83;21112;-81
2021/06/24 03:20:44;;;;;;;33.70;25.43;;;;;;;20.02;90.64;99074.35;4199782;83;21100;-80
2021/06/24 03:26:47;;;;;;;36.63;24.85;;;;;;;20.01;90.62;99072.01;4206783;83;21022;-82
2021/06/24 03:32:50;;;;;;;36.13;25.25;;;;;;;20.03;90.93;99065.39;4209281;83;21084;-81
2021/06/24 03:38:52;;;;;;;39.27;26.57;;;;;;;20.05;90.79;99062.96;4208139;82;22142;-81
2021/06/24 03:44:56;;;;;;;32.38;25.23;;;;;;;20.06;91.03;99070.09;4198885;83;21018;-80
2021/06/24 03:51:01;;;;;;;37.28;26.23;;;;;;;20.11;91.28;99059.22;4199671;83;21080;-81
2021/06/24 03:57:03;;;;;;;35.75;25.68;;;;;;;20.16;91.31;99079.57;4195033;83;21061;-82
2021/06/24 04:03:07;;;;;;;36.42;26.00;;;;;;;20.19;91.54;99066.19;4201021;82;21070;-81
2021/06/24 04:09:14;;;;;;;31.20;22.60;;;;;;;20.32;91.64;99057.13;4175361;83;21028;-81
2021/06/24 04:15:18;;;;;;;33.60;24.77;;;;;;;20.33;91.74;99051.13;4193958;83;21466;-83
2021/06/24 04:21:21;;;;;;;44.42;26.42;;;;;;;20.42;91.80;99056.85;4175355;83;21070;-82
2021/06/24 04:27:26;;;;;;;34.83;24.37;;;;;;;20.52;91.85;99037.69;4174614;83;21026;-82
2021/06/24 04:33:28;;;;;;;31.90;24.12;;;;;;;20.58;92.08;99041.48;4174964;83;21565;-81
2021/06/24 04:39:32;;;;;;;34.78;24.52;;;;;;;20.65;92.18;99051.62;4181295;82;21014;-82
2021/06/24 04:45:35;;;;;;;38.78;27.15;;;;;;;20.80;92.37;99062.51;4173598;83;21702;-82
2021/06/24 04:51:40;;;;;;;36.53;25.37;;;;;;;20.91;92.30;99048.47;4200629;83;21074;-82
2021/06/24 04:57:44;;;;;;;38.63;26.23;;;;;;;21.07;92.28;99051.20;4173662;83;21895;-83
2021/06/24 05:04:04;;;;;;;41.48;26.42;;;;;;;21.18;92.25;99060.61;4208298;83;21062;-81
2021/06/24 05:10:07;;;;;;;42.17;28.73;;;;;;;21.34;92.11;99054.34;4193719;83;21050;-82
2021/06/24 05:16:13;;;;;;;39.10;29.07;;;;;;;21.44;91.92;99049.03;4160210;84;21119;-82
2021/06/24 05:22:16;;;;;;;39.40;28.90;;;;;;;21.60;91.99;99060.67;4163750;84;21046;-81
2021/06/24 05:28:19;;;;;;;39.65;28.30;;;;;;;21.79;91.82;99054.11;4159227;84;21113;-81
2021/06/24 05:34:21;;;;;;;39.53;28.27;;;;;;;21.97;91.85;99060.48;4159134;84;21534;-82
2021/06/24 05:40:27;;;;;;;39.60;29.77;;;;;;;22.17;91.82;99057.59;4163083;84;21053;-81
2021/06/24 05:46:31;;;;;;;45.08;30.08;;;;;;;22.38;91.52;99061.66;4155999;84;21016;-82
2021/06/24 05:52:37;;;;;;;39.40;28.92;;;;;;;22.49;91.17;99057.88;4157555;84;21121;-81
2021/06/24 05:58:45;;;;;;;39.48;29.27;;;;;;;22.62;91.18;99052.41;4153610;84;21130;-81
2021/06/24 06:04:51;;;;;;;43.10;29.30;;;;;;;22.76;90.77;99031.56;4129371;84;21577;-82
2021/06/24 06:10:53;;;;;;;42.93;29.10;;;;;;;22.92;90.43;99042.53;4124635;85;21573;-81
2021/06/24 06:16:58;;;;;;;42.83;31.37;;;;;;;23.05;90.19;99032.06;4127869;84;21049;-81
2021/06/24 06:23:02;;;;;;;36.80;26.52;;;;;;;23.22;89.99;99028.56;4131304;84;21048;-82
2021/06/24 06:29:04;;;;;;;33.95;27.70;;;;;;;23.41;89.85;99038.45;4130106;84;21082;-84
2021/06/24 06:35:06;;;;;;;41.58;30.27;;;;;;;23.62;89.40;99027.20;4129585;84;21096;-82
2021/06/24 06:41:09;;;;;;;43.35;29.60;;;;;;;23.76;89.20;99034.23;4135138;84;22312;-83
2021/06/24 06:47:13;;;;;;;38.80;29.48;;;;;;;23.92;88.82;99029.12;4121508;85;20995;-83
2021/06/24 06:53:17;;;;;;;38.23;28.12;;;;;;;24.13;88.62;99035.23;4125135;83;21687;-82
2021/06/24 06:59:18;;;;;;;35.63;28.85;;;;;;;24.41;87.85;99037.44;4131885;84;21126;-82
2021/06/24 07:05:30;;;;;;;34.30;27.45;;;;;;;24.78;87.42;99051.58;4128807;85;21540;-82
2021/06/24 07:11:32;;;;;;;36.90;28.12;;;;;;;25.34;86.93;99044.75;4125381;84;21666;-81
2021/06/24 07:17:34;;;;;;;34.05;26.65;;;;;;;26.00;86.32;99032.91;4133212;84;21095;-82
2021/06/24 07:23:36;;;;;;;36.30;28.45;;;;;;;26.56;85.56;99036.98;4126948;84;21596;-81
2021/06/24 07:29:37;;;;;;;32.90;25.52;;;;;;;26.95;83.88;99024.45;4133612;84;21061;-82
2021/06/24 07:35:39;;;;;;;33.63;26.77;;;;;;;27.49;83.56;99024.48;4127747;85;21039;-83
2021/06/24 07:41:42;;;;;;;42.95;31.12;;;;;;;27.35;80.23;99040.74;4130157;85;21798;-82
2021/06/24 07:47:43;;;;;;;34.50;27.13;;;;;;;27.42;79.15;99043.17;4176734;83;21901;-82
2021/06/24 07:53:45;;;;;;;38.15;30.15;;;;;;;27.93;79.07;99036.41;4178992;82;21038;-81
2021/06/24 07:59:53;;;;;;;28.27;24.25;;;;;;;28.22;77.71;99033.44;4173442;83;21073;-81
2021/06/24 08:05:54;;;;;;;37.35;25.68;;;;;;;28.40;77.09;99038.80;4171821;83;21101;-82
2021/06/24 08:11:56;;;;;;;26.48;22.98;;;;;;;28.48;76.06;99032.91;4172927;83;21085;-82
2021/06/24 08:18:00;;;;;;;30.55;23.80;;;;;;;28.49;74.99;99033.66;4172574;83;21637;-82
2021/06/24 08:24:05;;;;;;;27.87;23.67;;;;;;;28.59;74.15;99038.66;4170709;83;21097;-82
2021/06/24 08:30:09;;;;;;;29.80;22.60;;;;;;;28.68;73.46;99033.49;4176186;83;21061;-82
2021/06/24 08:36:10;;;;;;;31.27;23.92;;;;;;;28.81;72.62;99040.94;4168457;83;21140;-83
2021/06/24 08:42:14;;;;;;;33.42;24.70;;;;;;;28.93;72.12;99034.91;4192413;83;21082;-82
2021/06/24 08:48:18;;;;;;;35.98;27.55;;;;;;;29.00;71.70;99034.45;4132989;84;21036;-81
2021/06/24 08:54:21;;;;;;;34.53;27.00;;;;;;;29.14;71.28;99036.27;4127547;84;21052;-82
2021/06/24 09:00:24;;;;;;;32.70;26.02;;;;;;;29.15;70.72;99037.80;4127519;84;21059;-82
2021/06/24 09:06:31;;;;;;;30.70;25.37;;;;;;;29.05;70.45;99031.56;4135838;84;21036;-82
2021/06/24 09:12:47;;;;;;;32.55;26.05;;;;;;;29.17;68.79;99026.81;4125709;84;21381;-82
2021/06/24 09:18:50;;;;;;;31.65;24.30;;;;;;;29.10;68.88;99025.87;4130616;84;21545;-81
2021/06/24 09:24:57;;;;;;;32.60;24.63;;;;;;;28.99;68.35;99020.23;4133357;84;21054;-81
2021/06/24 09:30:58;;;;;;;30.52;24.82;;;;;;;29.25;67.79;99018.83;4129292;84;21553;-81
2021/06/24 09:37:04;;;;;;;31.37;24.98;;;;;;;29.65;67.63;99012.19;4135658;84;21074;-82
2021/06/24 09:43:06;;;;;;;31.37;25.27;;;;;;;30.04;67.14;99011.77;4130568;84;21530;-82
2021/06/24 09:49:09;;;;;;;31.60;24.50;;;;;;;30.16;65.49;99009.89;4132400;84;21072;-81
2021/06/24 09:55:15;;;;;;;36.77;25.10;;;;;;;30.44;63.26;99002.35;4129041;84;21508;-83
2021/06/24 10:01:47;;;;;;;31.33;22.37;;;;;;;30.63;63.42;98999.83;4130467;84;21077;-82
2021/06/24 10:07:54;;;;;;;27.17;20.68;;;;;;;31.02;63.85;98997.06;4151022;84;21111;-80
2021/06/24 10:13:58;;;;;;;26.40;23.20;;;;;;;31.21;59.65;98989.61;4212696;83;21115;-82
2021/06/24 10:20:01;;;;;;;32.65;25.35;;;;;;;31.13;61.51;98983.71;4181862;83;21592;-82
2021/06/24 10:26:23;;;;;;;31.23;24.37;;;;;;;31.39;61.52;98978.56;4209625;83;22056;-82
2021/06/24 10:32:33;;;;;;;29.30;20.95;;;;;;;31.55;60.98;98976.36;4183461;83;21679;-82
2021/06/24 10:38:42;;;;;;;34.45;22.65;;;;;;;31.74;60.27;98963.19;4159367;84;21049;-81
2021/06/24 10:44:51;;;;;;;30.02;20.75;;;;;;;31.86;58.12;98965.35;4182941;83;21027;-83
2021/06/24 10:51:18;;;;;;;30.72;23.32;;;;;;;31.90;59.16;98953.12;4182838;83;21028;-80
2021/06/24 10:57:37;;;;;;;30.27;22.90;;;;;;;32.16;58.56;98952.10;4205780;83;21189;-83
2021/06/24 11:03:47;;;;;;;33.25;25.55;;;;;;;32.18;56.63;98944.50;4177034;83;21048;-83
2021/06/24 11:10:14;;;;;;;30.15;24.47;;;;;;;32.63;57.94;98939.48;4191327;83;21078;-82
2021/06/24 11:16:28;;;;;;;32.00;22.93;;;;;;;33.05;57.66;98939.55;4122180;84;21005;-82
2021/06/24 11:22:51;;;;;;;25.95;21.50;;;;;;;33.46;56.98;98933.77;4129930;84;21047;-83
2021/06/24 11:29:39;;;;;;;;;;;;;;;;;;;;;
2021/06/24 11:35:49;;;;;;;20.88;18.05;;;;;;;34.08;55.67;98922.62;4126330;84;21114;-82
2021/06/24 11:41:26;;;;;;;23.80;18.73;;;;;;;34.08;55.79;98911.26;4128747;84;21070;-84
2021/06/24 11:47:37;;;;;;;20.90;17.12;;;;;;;34.34;55.54;98909.33;4130798;84;21720;-82
2021/06/24 12:06:24;;;;;;;27.30;16.80;;;;;;;34.62;52.73;98884.12;4133242;85;21034;-83
2021/06/24 12:12:29;;;;;;;24.25;17.48;;;;;;;34.51;52.88;98872.16;4182280;83;21069;-82
2021/06/24 12:18:42;;;;;;;23.95;17.75;;;;;;;34.11;52.63;98870.42;4192104;83;21065;-82
2021/06/24 12:24:47;;;;;;;24.43;16.45;;;;;;;33.87;52.67;98866.97;4173777;83;21075;-83
2021/06/24 12:30:51;;;;;;;25.00;18.00;;;;;;;33.76;52.29;98853.56;4195077;83;21033;-83
2021/06/24 12:36:58;;;;;;;23.80;17.37;;;;;;;33.52;52.64;98836.57;4129261;84;21082;-82
2021/06/24 12:43:01;;;;;;;26.40;17.32;;;;;;;33.36;52.62;98824.09;4193038;83;21808;-82
2021/06/24 12:49:17;;;;;;;26.12;18.30;;;;;;;33.18;52.50;98814.91;4174100;83;21052;-82
2021/06/24 12:55:44;;;;;;;20.85;17.02;;;;;;;33.00;52.81;98813.55;4125470;84;21094;-81
2021/06/24 13:01:52;;;;;;;20.75;16.90;;;;;;;32.76;53.00;98816.36;4132535;83;21618;-82
2021/06/24 13:07:57;;;;;;;22.35;17.40;;;;;;;32.72;52.99;98810.84;4133766;84;21104;-82
2021/06/24 13:14:16;;;;;;;25.02;17.60;;;;;;;32.67;53.29;98808.17;4140292;84;21619;-83
2021/06/24 13:20:18;;;;;;;23.60;17.48;;;;;;;32.54;52.94;98793.89;4136196;84;21077;-81
2021/06/24 13:26:21;;;;;;;23.12;17.90;;;;;;;32.52;53.50;98782.95;4139025;84;21776;-82
2021/06/24 13:32:32;;;;;;;29.20;17.25;;;;;;;32.40;53.72;98784.35;4173557;84;22013;-82
2021/06/24 13:38:34;;;;;;;27.90;18.52;;;;;;;32.21;54.13;98760.16;4171507;84;21097;-82
2021/06/24 13:44:35;;;;;;;25.97;18.35;;;;;;;31.94;54.21;98753.41;4157454;83;21130;-82
2021/06/24 13:50:37;;;;;;;20.37;16.97;;;;;;;31.73;54.63;98752.89;4161672;84;21062;-81
2021/06/24 13:56:39;;;;;;;21.60;15.90;;;;;;;31.74;54.98;98748.76;4155062;84;21056;-82
2021/06/24 14:02:40;;;;;;;19.92;16.02;;;;;;;31.96;54.80;98740.14;4140313;84;21078;-82
2021/06/24 14:08:42;;;;;;;22.15;16.30;;;;;;;32.18;54.73;98758.37;4114174;83;21090;-80
2021/06/24 14:14:45;;;;;;;21.75;16.05;;;;;;;32.31;54.82;98761.34;4190933;83;21053;-81
2021/06/24 14:20:47;;;;;;;23.87;15.98;;;;;;;32.14;55.12;98748.64;4168879;83;21494;-82
2021/06/24 14:26:55;;;;;;;27.13;16.42;;;;;;;31.79;55.30;98732.39;4073927;83;10000013;-82
2021/06/24 14:32:57;;;;;;;26.42;16.77;;;;;;;31.40;55.55;98721.95;4144274;84;21616;-82
2021/06/24 14:39:07;;;;;;;25.30;16.40;;;;;;;31.17;56.29;98712.78;4127628;85;21027;-83
2021/06/24 14:45:10;;;;;;;27.30;15.55;;;;;;;30.98;56.78;98703.34;4131337;84;21057;-83
2021/06/24 14:51:14;;;;;;;21.82;14.73;;;;;;;30.83;56.73;98686.58;4124428;84;20988;-81
2021/06/24 14:57:17;;;;;;;;;;;;;;;30.63;56.70;98637.45;4136778;84;21166;-82
2021/06/24 15:03:22;;;;;;;27.27;15.08;;;;;;;30.49;57.40;98615.29;3994409;84;20824;-81
2021/06/24 15:09:26;;;;;;;26.68;15.80;;;;;;;30.30;57.22;98595.96;4123717;84;21602;-82
2021/06/24 15:15:35;;;;;;;42.07;22.87;;;;;;;29.93;57.80;98581.40;4126830;83;21008;-81
2021/06/24 15:21:38;;;;;;;36.70;19.07;;;;;;;29.61;57.99;98544.22;4127362;84;21044;-80
2021/06/24 15:27:40;;;;;;;36.83;17.92;;;;;;;29.37;58.46;98631.98;4014628;84;10000500;-80
2021/06/24 15:33:46;;;;;;;41.53;18.60;;;;;;;28.98;59.62;98700.28;4126365;84;21114;-76
2021/06/24 15:39:48;;;;;;;31.48;16.97;;;;;;;28.54;61.97;98754.97;4136601;84;21095;-79
2021/06/24 15:45:49;;;;;;;20.85;13.03;;;;;;;27.12;64.55;98694.62;4129933;84;21032;-80
2021/06/24 15:51:52;;;;;;;26.25;13.68;;;;;;;26.21;66.50;98723.22;4127993;84;21022;-80
2021/06/24 15:57:54;;;;;;;18.20;10.32;;;;;;;25.54;68.39;98707.90;4131010;84;21074;-82
2021/06/24 16:04:01;;;;;;;21.75;10.08;;;;;;;25.01;69.77;98674.25;4134920;84;21068;-79
2021/06/24 16:10:03;;;;;;;25.40;10.13;;;;;;;24.48;70.03;98605.59;4143590;84;21082;-80
2021/06/24 16:16:10;;;;;;;14.38;10.18;;;;;;;24.39;71.35;98650.43;4173652;84;21090;-80
2021/06/24 16:22:12;;;;;;;26.52;10.90;;;;;;;24.45;72.10;98703.69;4124142;85;21045;-80
2021/06/24 16:28:14;;;;;;;23.00;10.63;;;;;;;24.43;72.57;98766.36;4179655;84;21013;-81
2021/06/24 16:34:15;;;;;;;20.80;10.15;;;;;;;24.18;72.97;98763.98;4172863;84;21006;-80
2021/06/24 16:40:18;;;;;;;17.17;9.70;;;;;;;23.80;74.25;98747.75;4137722;84;21065;-80
2021/06/24 16:46:20;;;;;;;20.57;8.28;;;;;;;23.44;76.48;98694.73;4175683;82;21065;-79
2021/06/24 16:52:21;;;;;;;14.50;7.05;;;;;;;23.15;78.92;98706.35;4187779;83;21029;-81
2021/06/24 16:58:23;;;;;;;16.55;6.12;;;;;;;22.78;76.95;98727.73;4186826;83;21042;-80
2021/06/24 17:04:24;;;;;;;14.93;6.05;;;;;;;22.41;76.83;98705.91;4181725;83;21030;-81
2021/06/24 17:10:26;;;;;;;15.78;5.33;;;;;;;22.10;76.53;98727.48;4178412;83;21011;-79
2021/06/24 17:16:27;;;;;;;12.33;5.10;;;;;;;21.86;77.62;98771.05;4173302;83;21012;-80
2021/06/24 17:22:29;;;;;;;9.05;4.92;;;;;;;21.62;78.30;98774.89;4172596;83;21074;-79
2021/06/24 17:28:30;;;;;;;13.58;5.20;;;;;;;21.39;78.47;98886.69;4195497;83;20979;-81
2021/06/24 17:34:32;;;;;;;17.62;5.62;;;;;;;21.30;78.83;98899.74;4126952;84;21067;-81
2021/06/24 17:40:34;;;;;;;9.95;4.65;;;;;;;21.14;79.03;98850.56;4128172;84;21536;-79
2021/06/24 17:46:36;;;;;;;17.20;5.83;;;;;;;21.27;79.78;98929.27;4125509;85;21477;-79
2021/06/24 17:52:39;;;;;;;12.78;5.20;;;;;;;21.40;78.92;98852.67;4120758;84;21103;-79
2021/06/24 17:58:40;;;;;;;12.98;5.65;;;;;;;21.28;78.88;98776.30;4011501;84;10000101;-76
2021/06/24 18:04:42;;;;;;;11.95;5.17;;;;;;;21.17;81.44;98834.35;4122399;84;21409;-77
2021/06/24 18:10:45;;;;;;;13.88;5.28;;;;;;;20.99;80.46;98825.05;4123921;84;22033;-76
2021/06/24 18:16:47;;;;;;;18.15;6.83;;;;;;;21.03;80.81;98913.39;4123963;84;21423;-77
2021/06/24 18:22:48;;;;;;;15.75;6.20;;;;;;;21.03;81.71;98978.15;4125992;83;21078;-78
2021/06/24 18:28:50;;;;;;;12.47;5.83;;;;;;;20.93;81.37;98943.08;4123648;85;21014;-77
2021/06/24 18:34:52;;;;;;;18.73;5.97;;;;;;;20.80;82.36;98919.23;4126382;84;21027;-82
2021/06/24 18:40:53;;;;;;;13.55;5.75;;;;;;;20.78;81.98;98898.06;4128757;84;21042;-78
2021/06/24 18:46:55;;;;;;;15.80;5.80;;;;;;;20.59;82.45;98892.09;4190312;83;20983;-79
2021/06/24 18:52:56;;;;;;;9.55;5.70;;;;;;;20.65;82.66;98854.95;4123881;84;21701;-79
2021/06/24 18:58:57;;;;;;;12.47;5.58;;;;;;;20.48;82.45;98815.97;4113801;84;21607;-80
2021/06/24 19:05:01;;;;;;;17.50;5.58;;;;;;;20.27;82.54;98776.31;4166760;83;22403;-79
2021/06/24 19:11:02;;;;;;;15.95;5.50;;;;;;;20.15;83.13;98762.56;4172352;83;21066;-79
2021/06/24 19:17:04;;;;;;;14.07;5.42;;;;;;;20.07;83.40;98705.65;4186206;83;20990;-80
2021/06/24 19:23:06;;;;;;;17.57;6.53;;;;;;;20.09;85.45;98706.59;4177473;83;21068;-82
2021/06/24 19:29:08;;;;;;;19.77;6.47;;;;;;;19.97;84.85;98729.58;4167986;83;21017;-78
2021/06/24 19:35:10;;;;;;;14.73;5.28;;;;;;;19.93;85.07;98784.48;4164412;83;21846;-79
2021/06/24 19:41:12;;;;;;;11.10;5.12;;;;;;;20.04;85.28;98792.67;4168420;83;21002;-79
2021/06/24 19:47:19;;;;;;;14.28;5.97;;;;;;;19.91;85.59;98783.53;4149837;84;21351;-81
2021/06/24 19:53:27;;;;;;;18.98;6.35;;;;;;;19.82;85.53;98777.86;4150925;84;21015;-79
2021/06/24 19:59:48;;;;;;;19.67;7.03;;;;;;;19.92;85.83;98789.87;4156943;84;21024;-79
2021/06/24 20:05:47;;;;;;;17.00;6.83;;;;;;;20.08;85.71;98798.89;4159243;84;21680;-78
2021/06/24 20:11:49;;;;;;;19.85;7.17;;;;;;;20.04;85.68;98825.23;4158275;84;21065;-79
2021/06/24 20:17:51;;;;;;;15.50;7.08;;;;;;;19.85;86.06;98896.41;4162831;83;21641;-80
2021/06/24 20:23:54;;;;;;;12.70;6.40;;;;;;;19.78;86.53;98895.20;4160641;84;21727;-80
2021/06/24 20:29:55;;;;;;;15.08;6.10;;;;;;;19.92;87.17;98982.32;4161739;84;21058;-79
2021/06/24 20:35:57;;;;;;;15.58;6.00;;;;;;;19.92;87.01;99007.95;4168258;84;21044;-79
2021/06/24 20:41:59;;;;;;;15.20;5.85;;;;;;;19.79;87.08;98937.05;4168023;84;22197;-80
2021/06/24 20:48:11;;;;;;;14.35;6.17;;;;;;;19.72;88.35;98983.66;4169915;84;21048;-80
2021/06/24 20:54:16;;;;;;;15.13;7.10;;;;;;;19.70;88.10;98952.16;4135930;84;20978;-79
2021/06/24 21:00:27;;;;;;;16.97;6.87;;;;;;;19.67;88.32;98931.44;4169876;84;21038;-79
2021/06/24 21:06:26;;;;;;;12.80;5.45;;;;;;;19.78;90.10;98953.53;4136666;84;21047;-81
2021/06/24 21:12:27;;;;;;;17.27;6.70;;;;;;;19.82;89.33;98966.73;4198483;82;21081;-80
2021/06/24 21:18:40;;;;;;;16.93;7.12;;;;;;;19.91;89.16;99082.77;4132753;84;21005;-79
2021/06/24 21:24:45;;;;;;;19.00;9.70;;;;;;;19.86;89.06;99164.64;4134092;84;21043;-78
2021/06/24 21:30:46;;;;;;;28.83;9.50;;;;;;;19.75;89.59;99367.46;4135511;84;21658;-78
2021/06/24 21:36:48;;;;;;;16.65;5.42;;;;;;;19.39;89.41;99086.99;4206795;83;21074;-77
2021/06/24 21:43:02;;;;;;;11.95;5.10;;;;;;;18.94;88.64;99162.27;4175397;83;20998;-81
2021/06/24 21:49:09;;;;;;;9.90;4.75;;;;;;;18.66;90.23;99198.86;4176492;83;21036;-80
2021/06/24 21:55:11;;;;;;;7.72;3.90;;;;;;;18.08;89.54;99145.41;4173226;83;21039;-77
2021/06/24 22:01:14;;;;;;;13.22;4.42;;;;;;;17.97;89.71;99081.09;4176410;83;21082;-77
2021/06/24 22:07:16;;;;;;;9.10;4.40;;;;;;;17.64;90.48;99109.13;4188385;83;21017;-78
2021/06/24 22:13:18;;;;;;;6.28;3.40;;;;;;;17.80;90.07;99184.03;4201714;83;21010;-78
2021/06/24 22:19:25;;;;;;;8.55;3.10;;;;;;;17.74;89.44;99171.07;4189835;83;21008;-78
2021/06/24 22:25:27;;;;;;;9.25;3.98;;;;;;;17.57;89.23;99149.97;4188380;83;22202;-76
2021/06/24 22:31:29;;;;;;;8.85;3.47;;;;;;;17.50;89.31;99130.09;4188300;83;21068;-76
2021/06/24 22:37:31;;;;;;;7.45;3.22;;;;;;;17.38;89.03;99169.97;4121683;84;21713;-77
2021/06/24 22:43:32;;;;;;;6.17;3.22;;;;;;;17.21;89.07;99124.13;4197068;83;20970;-78
2021/06/24 22:49:34;;;;;;;6.28;3.27;;;;;;;16.95;89.89;99045.28;4214422;83;21010;-78
2021/06/24 22:55:54;;;;;;;7.70;3.10;;;;;;;16.80;90.11;99041.91;4161248;84;21098;-79
2021/06/24 23:01:55;;;;;;;6.97;3.10;;;;;;;16.71;91.89;99033.34;4156190;84;21095;-78
2021/06/24 23:08:14;;;;;;;5.72;3.72;;;;;;;16.51;92.53;99023.34;4144871;84;21086;-78
2021/06/24 23:14:32;;;;;;;5.15;2.92;;;;;;;16.38;91.77;99025.06;4142883;84;21011;-78
2021/06/24 23:20:43;;;;;;;5.92;3.02;;;;;;;16.44;93.64;98962.06;4129100;83;22201;-78
2021/06/24 23:26:48;;;;;;;6.83;2.90;;;;;;;16.41;93.89;98939.36;4130378;84;21034;-78
2021/06/24 23:32:50;;;;;;;5.05;2.58;;;;;;;16.48;93.45;98946.22;4137399;84;21410;-78
2021/06/24 23:39:01;;;;;;;3.60;2.33;;;;;;;16.58;93.00;98959.70;4175265;84;21585;-77
2021/06/24 23:45:30;;;;;;;6.65;2.37;;;;;;;16.63;92.41;98910.27;4185922;83;21073;-78
2021/06/24 23:51:47;;;;;;;4.35;2.47;;;;;;;16.58;92.96;98888.65;4191106;83;21541;-77
2021/06/24 23:58:04;;;;;;;4.45;2.15;;;;;;;16.53;94.49;98853.78;4181850;83;21069;-80
